^^
Saratoga-Weather Station Historical Data
Daily Summary for May 23, 2022 Units:  Metric    English   Both
Daily Weekly Monthly Yearly Custom
  High: Low: Average:
Temperature: 22.6 °C 13.8 °C 17.1 °C
Dew Point: 18.4 °C 12.2 °C 14.6 °C
Humidity: 95% 75% 86%
Wind Speed: 22.7km/h 0km/h 3.3km/h
Wind Gust: 30.6km/h - -
Wind- - South
Pressure: 1007.8 hPa 998.6 hPa -
Precipitation: 10.4 mm    
Historical Graphs
 
 
Tabular Data for May 23, 2022
Time Temperature Dew Point Pressure Wind Wind Speed Wind Gust Humidity Rainfall Rate (Hourly) solar
00:03 16.7 °C 13 °C 1007.1 hPa Calm     79% 0.0 mm 0 W/m2
00:08 16.6 °C 12.9 °C 1007.1 hPa SSE 1.4 km/h 3.2 km/h 79% 0.0 mm 0 W/m2
00:13 16.5 °C 12.8 °C 1007.1 hPa SSE 1.4 km/h 1.6 km/h 79% 0.0 mm 0 W/m2
00:18 16.4 °C 12.7 °C 1007.1 hPa SSE 1.4 km/h 3.2 km/h 79% 0.0 mm 0 W/m2
00:23 16.3 °C 12.8 °C 1007.1 hPa SSE 1.4 km/h 3.2 km/h 80% 0.0 mm 0 W/m2
00:28 16.2 °C 12.7 °C 1007.1 hPa SSE 1.4 km/h 3.2 km/h 80% 0.0 mm 0 W/m2
00:33 16.2 °C 12.7 °C 1007.1 hPa Calm   1.6 km/h 80% 0.0 mm 0 W/m2
00:38 16.1 °C 12.8 °C 1007.1 hPa SSE 1.4 km/h 1.6 km/h 81% 0.0 mm 0 W/m2
00:43 15.9 °C 12.6 °C 1006.8 hPa SSE 1.4 km/h 3.2 km/h 81% 0.0 mm 0 W/m2
00:48 15.9 °C 12.6 °C 1006.8 hPa SE 1.4 km/h 3.2 km/h 81% 0.0 mm 0 W/m2
00:53 15.8 °C 12.5 °C 1006.8 hPa SE 1.4 km/h 1.6 km/h 81% 0.0 mm 0 W/m2
00:58 15.8 °C 12.5 °C 1006.8 hPa Calm   1.6 km/h 81% 0.0 mm 0 W/m2
01:03 15.7 °C 12.4 °C 1006.8 hPa SE 1.4 km/h 3.2 km/h 81% 0.0 mm 0 W/m2
01:08 15.6 °C 12.5 °C 1006.8 hPa SE 1.4 km/h 1.6 km/h 82% 0.0 mm 0 W/m2
01:13 15.6 °C 12.5 °C 1006.8 hPa SE 1.4 km/h 3.2 km/h 82% 0.0 mm 0 W/m2
01:18 15.5 °C 12.6 °C 1006.8 hPa Calm   1.6 km/h 83% 0.0 mm 0 W/m2
01:23 15.4 °C 12.5 °C 1006.8 hPa Calm   3.2 km/h 83% 0.0 mm 0 W/m2
01:28 15.4 °C 12.5 °C 1006.8 hPa Calm   1.6 km/h 83% 0.0 mm 0 W/m2
01:33 15.4 °C 12.7 °C 1006.8 hPa SE 1.4 km/h 1.6 km/h 84% 0.0 mm 0 W/m2
01:38 15.4 °C 12.7 °C 1006.4 hPa Calm   1.6 km/h 84% 0.0 mm 0 W/m2
01:43 15.5 °C 12.8 °C 1006.4 hPa Calm   1.6 km/h 84% 0.0 mm 0 W/m2
01:48 15.5 °C 12.8 °C 1006.4 hPa Calm     84% 0.0 mm 0 W/m2
01:53 15.6 °C 12.7 °C 1006.1 hPa SE 1.4 km/h 1.6 km/h 83% 0.0 mm 0 W/m2
01:58 15.6 °C 12.5 °C 1006.1 hPa SE 1.4 km/h 1.6 km/h 82% 0.0 mm 0 W/m2
02:03 15.7 °C 12.6 °C 1005.8 hPa Calm     82% 0.0 mm 0 W/m2
02:08 15.8 °C 12.5 °C 1005.8 hPa SE 1.4 km/h 3.2 km/h 81% 0.0 mm 0 W/m2
02:13 15.8 °C 12.4 °C 1005.8 hPa Calm   3.2 km/h 80% 0.0 mm 0 W/m2
02:18 15.8 °C 12.5 °C 1005.8 hPa ESE 1.4 km/h 3.2 km/h 81% 0.0 mm 0 W/m2
02:23 15.8 °C 12.5 °C 1005.8 hPa ESE 1.4 km/h 3.2 km/h 81% 0.0 mm 0 W/m2
02:28 15.8 °C 12.4 °C 1005.8 hPa ESE 1.4 km/h 4.8 km/h 80% 0.0 mm 0 W/m2
02:33 15.9 °C 12.3 °C 1005.4 hPa ESE 1.4 km/h 3.2 km/h 79% 0.0 mm 0 W/m2
02:38 16 °C 12.2 °C 1005.1 hPa ESE 1.4 km/h 4.8 km/h 78% 0.0 mm 0 W/m2
02:43 16.1 °C 12.3 °C 1005.4 hPa Calm     78% 0.0 mm 0 W/m2
02:48 16.2 °C 12.4 °C 1005.4 hPa Calm     78% 0.0 mm 0 W/m2
02:53 16.2 °C 12.4 °C 1005.4 hPa Calm     78% 0.0 mm 0 W/m2
02:58 16.2 °C 12.6 °C 1005.4 hPa Calm     79% 0.0 mm 0 W/m2
03:03 16.2 °C 12.4 °C 1005.4 hPa Calm     78% 0.0 mm 0 W/m2
03:08 16.1 °C 12.5 °C 1005.4 hPa Calm     79% 0.0 mm 0 W/m2
03:13 16.1 °C 12.5 °C 1005.8 hPa Calm     79% 0.0 mm 0 W/m2
03:18 16.1 °C 12.5 °C 1006.1 hPa Calm   3.2 km/h 79% 0.0 mm 0 W/m2
03:23 16.1 °C 12.5 °C 1006.1 hPa Calm     79% 0.0 mm 0 W/m2
03:28 16.1 °C 12.6 °C 1006.4 hPa SSW 4.7 km/h 4.8 km/h 80% 0.0 mm 0 W/m2
03:33 16.1 °C 12.6 °C 1006.8 hPa SW 1.4 km/h 3.2 km/h 80% 0.0 mm 0 W/m2
03:38 16.1 °C 12.6 °C 1007.8 hPa WSW 11.1 km/h 17.7 km/h 80% 0.0 mm 0 W/m2
03:43 16.3 °C 12.5 °C 1007.5 hPa WSW 1.4 km/h 3.2 km/h 78% 0.0 mm 0 W/m2
03:48 16.3 °C 12.5 °C 1007.5 hPa West 1.4 km/h 3.2 km/h 78% 0.0 mm 0 W/m2
03:53 16.3 °C 12.7 °C 1007.5 hPa WSW 1.4 km/h 4.8 km/h 79% 0.2 mm 0 W/m2
03:58 16.2 °C 12.7 °C 1007.5 hPa East 1.4 km/h 3.2 km/h 80% 0.2 mm 0 W/m2
04:03 15.9 °C 12.8 °C 1007.1 hPa East 3.2 km/h 8 km/h 82% 0.5 mm 0 W/m2
04:08 15.8 °C 12.9 °C 1007.1 hPa ESE 3.2 km/h 6.4 km/h 83% 0.5 mm 0 W/m2
04:13 15.6 °C 12.9 °C 1007.1 hPa SE 1.4 km/h 4.8 km/h 84% 0.5 mm 0 W/m2
04:18 15.3 °C 12.8 °C 1006.4 hPa SW 1.4 km/h 3.2 km/h 85% 1.0 mm 0 W/m2
04:23 15.2 °C 13 °C 1006.4 hPa SW 1.4 km/h 1.6 km/h 87% 1.5 mm 0 W/m2
04:28 14.9 °C 12.9 °C 1006.1 hPa West 3.2 km/h 4.8 km/h 88% 1.5 mm 0 W/m2
04:33 14.7 °C 12.9 °C 1006.1 hPa WSW 1.4 km/h 3.2 km/h 89% 1.8 mm 0 W/m2
04:38 14.5 °C 12.9 °C 1006.1 hPa ESE 1.4 km/h 4.8 km/h 90% 2.0 mm 0 W/m2
04:43 14.3 °C 12.9 °C 1006.4 hPa Calm     91% 2.0 mm 0 W/m2
04:48 14.3 °C 12.9 °C 1006.1 hPa Calm   3.2 km/h 91% 2.3 mm 0 W/m2
04:53 14.2 °C 12.8 °C 1006.1 hPa Calm     91% 2.0 mm 0 W/m2
04:58 14.1 °C 12.7 °C 1006.1 hPa Calm     91% 2.0 mm 0 W/m2
05:03 14.1 °C 12.8 °C 1005.8 hPa Calm     92% 1.8 mm 0 W/m2
05:08 13.9 °C 12.6 °C 1005.8 hPa Calm   3.2 km/h 92% 2.0 mm 0 W/m2
05:13 13.9 °C 12.6 °C 1005.4 hPa Calm     92% 1.8 mm 0 W/m2
05:18 13.9 °C 12.8 °C 1004.7 hPa ESE 3.2 km/h 3.2 km/h 93% 1.5 mm 0 W/m2
05:23 13.9 °C 12.8 °C 1004.4 hPa ENE 1.4 km/h 4.8 km/h 93% 1.3 mm 0 W/m2
05:28 13.9 °C 12.8 °C 1004.1 hPa East 3.2 km/h 3.2 km/h 93% 1.0 mm 0 W/m2
05:33 14 °C 12.9 °C 1002.7 hPa ENE 6.4 km/h 6.4 km/h 93% 0.8 mm 0 W/m2
05:39 14.1 °C 13 °C 1002.0 hPa ESE 3.2 km/h 6.4 km/h 93% 0.5 mm 0 W/m2
05:44 14.1 °C 13.1 °C 1002.0 hPa Calm   3.2 km/h 94% 0.5 mm 0 W/m2
05:49 14 °C 12.9 °C 1002.0 hPa ESE 1.4 km/h 6.4 km/h 93% 0.5 mm 0 W/m2
05:54 13.9 °C 12.8 °C 1002.0 hPa Calm   1.6 km/h 93% 0.5 mm 0 W/m2
05:59 13.9 °C 12.8 °C 1002.0 hPa Calm   3.2 km/h 93% 0.5 mm 0 W/m2
06:04 13.9 °C 12.8 °C 1002.7 hPa SSE 1.4 km/h 3.2 km/h 93% 0.5 mm 5 W/m2
06:09 13.8 °C 12.7 °C 1003.0 hPa Calm   1.6 km/h 93% 0.2 mm 7 W/m2
06:14 13.8 °C 12.9 °C 1003.0 hPa Calm   1.6 km/h 94% 0.2 mm 11 W/m2
06:19 13.8 °C 12.9 °C 1003.0 hPa Calm     94% 0.2 mm 12 W/m2
06:24 13.8 °C 12.9 °C 1003.0 hPa South 1.4 km/h 3.2 km/h 94% 0.0 mm 16 W/m2
06:29 13.8 °C 12.9 °C 1003.0 hPa Calm     94% 0.0 mm 21 W/m2
06:34 13.8 °C 12.9 °C 1002.7 hPa South 1.4 km/h 3.2 km/h 94% 0.0 mm 26 W/m2
06:39 13.8 °C 12.9 °C 1002.7 hPa South 1.4 km/h 1.6 km/h 94% 0.0 mm 33 W/m2
06:44 13.8 °C 12.9 °C 1002.7 hPa Calm     94% 0.0 mm 44 W/m2
06:49 13.8 °C 12.9 °C 1002.7 hPa SSW 1.4 km/h 3.2 km/h 94% 0.0 mm 53 W/m2
06:54 13.9 °C 12.9 °C 1002.7 hPa Calm     94% 0.0 mm 62 W/m2
06:59 13.9 °C 12.9 °C 1002.7 hPa Calm   1.6 km/h 94% 0.0 mm 72 W/m2
07:04 13.9 °C 13.1 °C 1002.7 hPa SSW 1.4 km/h 3.2 km/h 95% 0.0 mm 77 W/m2
07:09 14 °C 13 °C 1003.0 hPa SSW 1.4 km/h 1.6 km/h 94% 0.0 mm 81 W/m2
07:14 14.1 °C 13.1 °C 1003.0 hPa West 3.2 km/h 3.2 km/h 94% 0.0 mm 102 W/m2
07:19 14.2 °C 13.2 °C 1003.0 hPa Calm   3.2 km/h 94% 0.0 mm 102 W/m2
07:24 14.3 °C 13.5 °C 1003.4 hPa Calm     95% 0.0 mm 102 W/m2
07:29 14.4 °C 13.4 °C 1003.0 hPa Calm   3.2 km/h 94% 0.0 mm 120 W/m2
07:34 14.6 °C 13.6 °C 1003.4 hPa Calm     94% 0.0 mm 155 W/m2
07:39 14.8 °C 13.8 °C 1003.4 hPa WSW 1.4 km/h 3.2 km/h 94% 0.0 mm 162 W/m2
07:44 15.1 °C 14.1 °C 1003.4 hPa ESE 4.7 km/h 4.8 km/h 94% 0.0 mm 151 W/m2
07:49 15.2 °C 14.1 °C 1003.4 hPa Calm   4.8 km/h 93% 0.0 mm 97 W/m2
07:54 15.2 °C 14.1 °C 1003.4 hPa ENE 1.4 km/h 3.2 km/h 93% 0.0 mm 95 W/m2
07:59 15.3 °C 14.2 °C 1003.4 hPa NE 3.2 km/h 4.8 km/h 93% 0.0 mm 83 W/m2
08:04 15.3 °C 14 °C 1003.0 hPa ENE 1.4 km/h 3.2 km/h 92% 0.0 mm 76 W/m2
08:09 15.3 °C 14 °C 1003.0 hPa Calm   4.8 km/h 92% 0.0 mm 79 W/m2
08:14 15.4 °C 14.1 °C 1003.0 hPa ESE 3.2 km/h 8 km/h 92% 0.0 mm 102 W/m2
08:19 15.4 °C 14.1 °C 1002.7 hPa Calm   4.8 km/h 92% 0.0 mm 114 W/m2
08:24 15.4 °C 13.9 °C 1002.7 hPa NNE 1.4 km/h 8 km/h 91% 0.0 mm 142 W/m2
08:29 15.6 °C 14.1 °C 1002.4 hPa Calm   9.7 km/h 91% 0.0 mm 176 W/m2
08:34 15.7 °C 14.1 °C 1002.4 hPa ESE 3.2 km/h 3.2 km/h 90% 0.0 mm 142 W/m2
08:39 15.9 °C 14.1 °C 1002.7 hPa ENE 1.4 km/h 9.7 km/h 89% 0.0 mm 118 W/m2
08:44 15.9 °C 14.1 °C 1002.7 hPa ENE 4.7 km/h 4.8 km/h 89% 0.0 mm 91 W/m2
08:49 16.1 °C 14.1 °C 1002.7 hPa Calm   6.4 km/h 88% 0.0 mm 111 W/m2
08:54 16.4 °C 14.2 °C 1003.0 hPa ENE 4.7 km/h 9.7 km/h 87% 0.0 mm 169 W/m2
08:59 16.7 °C 14.3 °C 1002.7 hPa ESE 3.2 km/h 6.4 km/h 86% 0.0 mm 179 W/m2
09:04 16.8 °C 14.6 °C 1003.4 hPa East 3.2 km/h 9.7 km/h 87% 0.0 mm 176 W/m2
09:09 16.9 °C 14.4 °C 1003.4 hPa ESE 6.4 km/h 11.3 km/h 85% 0.0 mm 149 W/m2
09:14 17 °C 14.5 °C 1003.0 hPa ENE 4.7 km/h 12.9 km/h 85% 0.0 mm 144 W/m2
09:19 17.1 °C 14.4 °C 1003.0 hPa East 3.2 km/h 4.8 km/h 84% 0.0 mm 105 W/m2
09:24 17.1 °C 14.2 °C 1003.0 hPa ESE 1.4 km/h 12.9 km/h 83% 0.0 mm 74 W/m2
09:29 17.1 °C 14.4 °C 1003.4 hPa ENE 6.4 km/h 8 km/h 84% 0.0 mm 81 W/m2
09:34 17.3 °C 14.6 °C 1003.0 hPa ENE 3.2 km/h 6.4 km/h 84% 0.0 mm 83 W/m2
09:39 17.6 °C 14.5 °C 1003.0 hPa ENE 3.2 km/h 11.3 km/h 82% 0.0 mm 98 W/m2
09:44 17.8 °C 14.7 °C 1003.0 hPa ESE 3.2 km/h 11.3 km/h 82% 0.0 mm 137 W/m2
09:49 18 °C 14.7 °C 1003.0 hPa East 3.2 km/h 6.4 km/h 81% 0.0 mm 214 W/m2
09:54 18.1 °C 14.6 °C 1003.0 hPa ENE 1.4 km/h 9.7 km/h 80% 0.0 mm 244 W/m2
09:59 18.2 °C 14.5 °C 1003.0 hPa ESE 3.2 km/h 4.8 km/h 79% 0.0 mm 239 W/m2
10:04 18.3 °C 15.2 °C 1003.0 hPa ENE 3.2 km/h 9.7 km/h 82% 0.0 mm 272 W/m2
10:09 18.4 °C 14.9 °C 1003.0 hPa East 3.2 km/h 6.4 km/h 80% 0.0 mm 524 W/m2
10:14 18.6 °C 15.1 °C 1003.0 hPa NE 3.2 km/h 6.4 km/h 80% 0.0 mm 362 W/m2
10:19 18.7 °C 15 °C 1003.0 hPa ENE 3.2 km/h 12.9 km/h 79% 0.0 mm 320 W/m2
10:24 18.8 °C 15.1 °C 1003.0 hPa ESE 4.7 km/h 8 km/h 79% 0.0 mm 237 W/m2
10:29 18.8 °C 15.1 °C 1003.0 hPa Calm   9.7 km/h 79% 0.0 mm 206 W/m2
10:34 18.7 °C 15 °C 1003.0 hPa Calm   3.2 km/h 79% 0.0 mm 172 W/m2
10:39 18.7 °C 15.2 °C 1002.7 hPa ESE 1.4 km/h 6.4 km/h 80% 0.0 mm 127 W/m2
10:44 18.6 °C 15.3 °C 1002.7 hPa ESE 3.2 km/h 4.8 km/h 81% 0.0 mm 81 W/m2
10:49 18.4 °C 14.9 °C 1002.4 hPa ESE 1.4 km/h 3.2 km/h 80% 0.0 mm 53 W/m2
10:54 18.3 °C 15.2 °C 1002.0 hPa SE 1.4 km/h 6.4 km/h 82% 0.0 mm 44 W/m2
10:59 18.1 °C 15 °C 1002.0 hPa Calm   4.8 km/h 82% 0.0 mm 39 W/m2
11:04 17.9 °C 15 °C 1001.7 hPa Calm   1.6 km/h 83% 0.0 mm 46 W/m2
11:09 17.8 °C 15.1 °C 1001.4 hPa ENE 3.2 km/h 4.8 km/h 84% 0.0 mm 121 W/m2
11:14 17.8 °C 15.2 °C 1001.7 hPa East 1.4 km/h 3.2 km/h 85% 0.2 mm 206 W/m2
11:19 17.7 °C 15.3 °C 1002.0 hPa Calm     86% 0.2 mm 265 W/m2
11:24 17.7 °C 15.3 °C 1002.0 hPa NNE 1.4 km/h 3.2 km/h 86% 0.2 mm 246 W/m2
11:29 17.9 °C 15.5 °C 1002.0 hPa Calm   3.2 km/h 86% 0.2 mm 269 W/m2
11:34 17.9 °C 15.3 °C 1002.0 hPa ENE 4.7 km/h 4.8 km/h 85% 0.2 mm 239 W/m2
11:39 18.1 °C 15.5 °C 1002.0 hPa Calm   3.2 km/h 85% 0.2 mm 343 W/m2
11:44 18.3 °C 15.7 °C 1002.0 hPa ENE 1.4 km/h 3.2 km/h 85% 0.2 mm 413 W/m2
11:49 18.5 °C 15.7 °C 1002.0 hPa Calm   3.2 km/h 84% 0.2 mm 343 W/m2
11:54 18.7 °C 15.8 °C 1002.0 hPa Calm   4.8 km/h 83% 0.2 mm 301 W/m2
11:59 18.8 °C 16 °C 1002.0 hPa ENE 3.2 km/h 4.8 km/h 84% 0.2 mm 237 W/m2
12:04 19 °C 16.2 °C 1001.7 hPa East 4.7 km/h 4.8 km/h 84% 0.2 mm 279 W/m2
12:09 19.1 °C 16.1 °C 1001.7 hPa East 3.2 km/h 3.2 km/h 83% 0.2 mm 461 W/m2
12:14 19.3 °C 16.7 °C 1001.7 hPa East 4.7 km/h 4.8 km/h 85% 0.0 mm 527 W/m2
12:19 19.6 °C 16.6 °C 1001.7 hPa SE 4.7 km/h 6.4 km/h 83% 0.0 mm 429 W/m2
12:24 19.8 °C 16.6 °C 1001.7 hPa SE 6.4 km/h 9.7 km/h 82% 0.0 mm 283 W/m2
12:29 19.7 °C 16.5 °C 1001.7 hPa SSW 4.7 km/h 9.7 km/h 82% 0.0 mm 348 W/m2
12:34 19.8 °C 16.8 °C 1001.4 hPa East 3.2 km/h 4.8 km/h 83% 0.0 mm 490 W/m2
12:39 19.9 °C 16.9 °C 1001.4 hPa Calm   6.4 km/h 83% 0.0 mm 513 W/m2
12:44 20.3 °C 17.3 °C 1001.0 hPa ENE 3.2 km/h 9.7 km/h 83% 0.0 mm 930 W/m2
12:49 20.6 °C 17.2 °C 1001.0 hPa ESE 1.4 km/h 9.7 km/h 81% 0.0 mm 462 W/m2
12:54 20.6 °C 17 °C 1000.7 hPa Calm   11.3 km/h 80% 0.0 mm 364 W/m2
12:59 20.7 °C 17.1 °C 1000.7 hPa ESE 4.7 km/h 12.9 km/h 80% 0.0 mm 459 W/m2
13:04 20.7 °C 16.9 °C 1000.3 hPa NE 1.4 km/h 6.4 km/h 79% 0.0 mm 357 W/m2
13:09 20.7 °C 17.1 °C 1000.3 hPa ESE 3.2 km/h 4.8 km/h 80% 0.0 mm 515 W/m2
13:14 20.8 °C 17.4 °C 1000.3 hPa NE 9.7 km/h 9.7 km/h 81% 0.0 mm 682 W/m2
13:19 21.1 °C 17.5 °C 1000.3 hPa ESE 4.7 km/h 6.4 km/h 80% 0.0 mm 682 W/m2
13:24 21.6 °C 18 °C 1000.3 hPa North 3.2 km/h 6.4 km/h 80% 0.0 mm 1018 W/m2
13:29 22.1 °C 18.1 °C 1000.7 hPa SSE 1.4 km/h 6.4 km/h 78% 0.0 mm 281 W/m2
13:34 22.1 °C 17.9 °C 1000.3 hPa Calm   9.7 km/h 77% 0.0 mm 875 W/m2
13:39 22.3 °C 18.3 °C 1000.3 hPa Calm   6.4 km/h 78% 0.0 mm 914 W/m2
13:44 22.5 °C 17.8 °C 1000.3 hPa East 1.4 km/h 12.9 km/h 75% 0.0 mm 914 W/m2
13:49 22.6 °C 18.2 °C 1000.3 hPa NE 3.2 km/h 11.3 km/h 76% 0.0 mm 285 W/m2
13:54 22.4 °C 17.7 °C 1000.3 hPa ENE 7.9 km/h 20.9 km/h 75% 0.0 mm 209 W/m2
13:59 22.2 °C 17.8 °C 1000.3 hPa East 13 km/h 16.1 km/h 76% 0.0 mm 248 W/m2
14:04 21.9 °C 17.5 °C 1000.3 hPa South 9.7 km/h 12.9 km/h 76% 0.0 mm 199 W/m2
14:09 21.8 °C 17.6 °C 1000.0 hPa ENE 1.4 km/h 6.4 km/h 77% 0.0 mm 220 W/m2
14:14 21.9 °C 17.9 °C 1000.0 hPa WSW 4.7 km/h 11.3 km/h 78% 0.0 mm 316 W/m2
14:19 22 °C 17.8 °C 999.7 hPa NE 3.2 km/h 6.4 km/h 77% 0.0 mm 144 W/m2
14:24 22.1 °C 17.7 °C 999.7 hPa West 4.7 km/h 11.3 km/h 76% 0.0 mm 195 W/m2
14:29 22.1 °C 17.7 °C 999.7 hPa NE 3.2 km/h 9.7 km/h 76% 0.0 mm 178 W/m2
14:34 22.1 °C 17.7 °C 999.7 hPa NW 4.7 km/h 8 km/h 76% 0.0 mm 107 W/m2
14:39 22.2 °C 18 °C 999.3 hPa WNW 3.2 km/h 11.3 km/h 77% 0.0 mm 72 W/m2
14:49 21.9 °C 18.1 °C 999.3 hPa NW 4.7 km/h 11.3 km/h 79% 0.2 mm 104 W/m2
14:54 21.7 °C 18.1 °C 999.3 hPa Calm   8 km/h 80% 0.2 mm 132 W/m2
14:59 21.6 °C 17.8 °C 999.3 hPa NNE 1.4 km/h 1.6 km/h 79% 0.2 mm 118 W/m2
15:04 21.5 °C 17.9 °C 999.3 hPa WNW 11.1 km/h 11.3 km/h 80% 0.2 mm 91 W/m2
15:09 21.5 °C 17.9 °C 999.3 hPa NW 3.2 km/h 9.7 km/h 80% 0.2 mm 42 W/m2
15:14 21.1 °C 17.9 °C 999.3 hPa WNW 6.4 km/h 20.9 km/h 82% 0.8 mm 105 W/m2
15:19 20.6 °C 17.8 °C 999.0 hPa NNW 3.2 km/h 6.4 km/h 84% 1.5 mm 285 W/m2
15:24 20.4 °C 18 °C 999.0 hPa NNW 3.2 km/h 20.9 km/h 86% 1.5 mm 276 W/m2
15:29 20.3 °C 17.9 °C 999.0 hPa NW 4.7 km/h 6.4 km/h 86% 1.5 mm 207 W/m2
15:34 20.3 °C 17.9 °C 999.0 hPa NNW 1.4 km/h 3.2 km/h 86% 1.5 mm 207 W/m2
15:39 20.3 °C 17.9 °C 999.0 hPa NNW 1.4 km/h 4.8 km/h 86% 1.5 mm 237 W/m2
15:44 20.4 °C 18 °C 999.3 hPa NE 1.4 km/h 8 km/h 86% 1.5 mm 230 W/m2
15:49 20.4 °C 18 °C 999.3 hPa Calm   6.4 km/h 86% 1.3 mm 216 W/m2
15:54 20.4 °C 17.8 °C 999.0 hPa WNW 1.4 km/h 12.9 km/h 85% 1.3 mm 264 W/m2
15:59 20.6 °C 18.4 °C 999.0 hPa NE 6.4 km/h 8 km/h 87% 1.3 mm 476 W/m2
16:04 20.7 °C 17.9 °C 999.0 hPa NNW 3.2 km/h 14.5 km/h 84% 1.3 mm 153 W/m2
16:09 20.7 °C 17.9 °C 998.6 hPa NNW 3.2 km/h 6.4 km/h 84% 1.3 mm 171 W/m2
16:14 20.8 °C 18 °C 998.6 hPa Calm   14.5 km/h 84% 0.5 mm 162 W/m2
16:19 20.7 °C 17.7 °C 999.0 hPa NW 4.7 km/h 12.9 km/h 83% 0.0 mm 102 W/m2
16:29 20.4 °C 17.6 °C 999.0 hPa NNW 7.9 km/h 12.9 km/h 84% 0.0 mm 28 W/m2
16:39 19.8 °C 17.2 °C 999.3 hPa NE 4.7 km/h 6.4 km/h 85% 2.5 mm 21 W/m2
16:44 19.2 °C 16.8 °C 999.3 hPa East 3.2 km/h 11.3 km/h 86% 3.0 mm 53 W/m2
16:49 18.7 °C 16.3 °C 999.0 hPa NW 4.7 km/h 8 km/h 86% 3.3 mm 116 W/m2
16:54 18.5 °C 16.3 °C 999.0 hPa NE 1.4 km/h 3.2 km/h 87% 3.3 mm 320 W/m2
17:04 18.7 °C 16.5 °C 998.6 hPa Calm   3.2 km/h 87% 3.3 mm 232 W/m2
17:09 18.9 °C 16.9 °C 998.6 hPa NW 4.7 km/h 4.8 km/h 88% 3.3 mm 571 W/m2
17:14 19.3 °C 16.7 °C 998.6 hPa North 4.7 km/h 4.8 km/h 85% 3.3 mm 272 W/m2
17:19 19.4 °C 16.8 °C 998.6 hPa Calm   1.6 km/h 85% 3.3 mm 232 W/m2
17:24 19.6 °C 17 °C 998.6 hPa North 1.4 km/h 6.4 km/h 85% 3.3 mm 267 W/m2
17:30 19.6 °C 17 °C 998.6 hPa NNW 3.2 km/h 4.8 km/h 85% 3.3 mm 192 W/m2
17:35 19.7 °C 17.1 °C 998.6 hPa NNE 3.2 km/h 3.2 km/h 85% 3.0 mm 149 W/m2
17:40 19.6 °C 17 °C 998.6 hPa WNW 1.4 km/h 6.4 km/h 85% 0.5 mm 121 W/m2
17:45 19.5 °C 17.1 °C 998.6 hPa Calm   6.4 km/h 86% 0.2 mm 111 W/m2
17:50 19.4 °C 17.2 °C 998.6 hPa NNW 1.4 km/h 4.8 km/h 87% 0.5 mm 67 W/m2
17:55 19.2 °C 17 °C 998.6 hPa NNW 3.2 km/h 12.9 km/h 87% 1.0 mm 72 W/m2
18:00 18.7 °C 16.7 °C 999.0 hPa NE 4.7 km/h 8 km/h 88% 2.0 mm 93 W/m2
18:05 18.4 °C 16.6 °C 998.6 hPa NNW 4.7 km/h 17.7 km/h 89% 2.3 mm 109 W/m2
18:10 18.2 °C 16.4 °C 998.6 hPa WNW 7.9 km/h 14.5 km/h 89% 2.3 mm 134 W/m2
18:15 18.1 °C 16.4 °C 998.6 hPa NW 1.4 km/h 6.4 km/h 90% 2.5 mm 165 W/m2
18:20 18.1 °C 16.4 °C 998.6 hPa NW 6.4 km/h 12.9 km/h 90% 2.5 mm 120 W/m2
18:25 18.1 °C 16.4 °C 998.6 hPa North 4.7 km/h 9.7 km/h 90% 2.5 mm 167 W/m2
18:30 18.1 °C 16.4 °C 998.6 hPa NNE 1.4 km/h 12.9 km/h 90% 2.5 mm 197 W/m2
18:35 18.1 °C 16.4 °C 998.6 hPa ESE 3.2 km/h 4.8 km/h 90% 2.5 mm 98 W/m2
18:40 18.1 °C 16.6 °C 998.6 hPa Calm   6.4 km/h 91% 2.5 mm 130 W/m2
18:45 18.1 °C 16.4 °C 998.6 hPa North 3.2 km/h 6.4 km/h 90% 2.5 mm 91 W/m2
18:50 18.1 °C 16.6 °C 998.6 hPa WNW 6.4 km/h 11.3 km/h 91% 2.3 mm 58 W/m2
18:55 18 °C 16.3 °C 998.6 hPa NW 6.4 km/h 11.3 km/h 90% 1.5 mm 58 W/m2
19:00 18 °C 16.3 °C 999.0 hPa WNW 1.4 km/h 16.1 km/h 90% 0.5 mm 53 W/m2
19:05 18.1 °C 16.3 °C 999.0 hPa NW 7.9 km/h 17.7 km/h 89% 0.5 mm 26 W/m2
19:10 18.1 °C 16.3 °C 999.3 hPa NW 17.7 km/h 17.7 km/h 89% 0.2 mm 14 W/m2
19:15 18 °C 16.2 °C 999.3 hPa West 6.4 km/h 24.1 km/h 89% 0.0 mm 12 W/m2
19:20 17.8 °C 16 °C 999.7 hPa West 16.3 km/h 20.9 km/h 89% 0.2 mm 21 W/m2
19:25 17.7 °C 15.9 °C 999.7 hPa WNW 14.3 km/h 24.1 km/h 89% 0.5 mm 88 W/m2
19:35 17.4 °C 15.6 °C 999.7 hPa West 13 km/h 25.7 km/h 89% 0.5 mm 14 W/m2
19:40 17.3 °C 15.5 °C 1000.0 hPa WSW 13 km/h 17.7 km/h 89% 0.5 mm 19 W/m2
19:45 17.2 °C 15.4 °C 1000.3 hPa West 14.3 km/h 24.1 km/h 89% 0.5 mm 53 W/m2
19:50 16.9 °C 15.1 °C 1000.3 hPa WSW 19.5 km/h 19.3 km/h 89% 0.5 mm 25 W/m2
19:55 16.8 °C 15 °C 1000.7 hPa West 13 km/h 22.5 km/h 89% 0.5 mm 14 W/m2
20:00 16.7 °C 14.7 °C 1000.7 hPa West 13 km/h 30.6 km/h 88% 0.5 mm 21 W/m2
20:05 16.4 °C 14.6 °C 1000.7 hPa West 13 km/h 29 km/h 89% 0.5 mm 12 W/m2
20:10 16.3 °C 14.5 °C 1001.0 hPa WNW 22.7 km/h 29 km/h 89% 0.5 mm 12 W/m2
20:15 16.2 °C 14.4 °C 1001.0 hPa NW 7.9 km/h 17.7 km/h 89% 0.2 mm 37 W/m2
20:20 16.1 °C 14.3 °C 1001.0 hPa West 14.3 km/h 29 km/h 89% 0.2 mm 30 W/m2
20:25 16.1 °C 14.3 °C 1001.4 hPa WNW 6.4 km/h 14.5 km/h 89% 0.0 mm 26 W/m2
20:30 16.1 °C 14.3 °C 1001.4 hPa WNW 7.9 km/h 14.5 km/h 89% 0.0 mm 32 W/m2
20:35 16.1 °C 14.1 °C 1001.4 hPa West 13 km/h 20.9 km/h 88% 0.0 mm 25 W/m2
20:40 16 °C 14 °C 1001.4 hPa West 11.1 km/h 22.5 km/h 88% 0.0 mm 30 W/m2
20:45 15.9 °C 13.9 °C 1001.4 hPa West 9.7 km/h 22.5 km/h 88% 0.0 mm 19 W/m2
20:50 15.8 °C 13.8 °C 1001.4 hPa West 3.2 km/h 14.5 km/h 88% 0.0 mm 12 W/m2
20:55 15.7 °C 13.7 °C 1001.4 hPa NNW 9.7 km/h 19.3 km/h 88% 0.0 mm 9 W/m2
21:00 15.6 °C 13.6 °C 1001.7 hPa WNW 13 km/h 25.7 km/h 88% 0.0 mm 9 W/m2
21:05 15.5 °C 13.3 °C 1001.4 hPa West 9.7 km/h 17.7 km/h 87% 0.0 mm 7 W/m2
21:10 15.4 °C 13.2 °C 1001.7 hPa WNW 19.5 km/h 25.7 km/h 87% 0.0 mm 7 W/m2
21:15 15.3 °C 13.1 °C 1001.7 hPa WNW 6.4 km/h 17.7 km/h 87% 0.0 mm 5 W/m2
21:20 15.3 °C 13.1 °C 1001.7 hPa West 13 km/h 24.1 km/h 87% 0.0 mm 0 W/m2
21:25 15.2 °C 13.2 °C 1002.0 hPa WNW 9.7 km/h 17.7 km/h 88% 0.0 mm 0 W/m2
21:30 15.2 °C 13.2 °C 1002.0 hPa WNW 4.7 km/h 12.9 km/h 88% 0.0 mm 0 W/m2
21:35 15.1 °C 13.1 °C 1002.0 hPa West 4.7 km/h 11.3 km/h 88% 0.0 mm 0 W/m2
21:40 15.1 °C 13.1 °C 1002.0 hPa West 9.7 km/h 9.7 km/h 88% 0.0 mm 0 W/m2
21:45 15 °C 13 °C 1002.4 hPa WSW 3.2 km/h 4.8 km/h 88% 0.0 mm 0 W/m2
21:50 14.9 °C 12.9 °C 1002.4 hPa West 1.4 km/h 9.7 km/h 88% 0.0 mm 0 W/m2
21:55 14.9 °C 13.1 °C 1002.4 hPa West 6.4 km/h 9.7 km/h 89% 0.0 mm 0 W/m2
22:00 14.8 °C 13 °C 1002.7 hPa SSW 4.7 km/h 14.5 km/h 89% 0.0 mm 0 W/m2
22:05 14.8 °C 13 °C 1002.7 hPa West 3.2 km/h 8 km/h 89% 0.0 mm 0 W/m2
22:10 14.8 °C 13 °C 1002.7 hPa NW 3.2 km/h 12.9 km/h 89% 0.0 mm 0 W/m2
22:15 14.8 °C 13 °C 1003.0 hPa West 3.2 km/h 4.8 km/h 89% 0.0 mm 0 W/m2
22:20 14.8 °C 13 °C 1003.0 hPa Calm   4.8 km/h 89% 0.0 mm 0 W/m2
22:25 14.8 °C 13 °C 1003.0 hPa WNW 4.7 km/h 4.8 km/h 89% 0.0 mm 0 W/m2
22:30 14.8 °C 13 °C 1003.0 hPa West 1.4 km/h 9.7 km/h 89% 0.0 mm 0 W/m2
22:35 14.8 °C 13 °C 1003.0 hPa West 3.2 km/h 6.4 km/h 89% 0.0 mm 0 W/m2
22:40 14.8 °C 13 °C 1003.0 hPa West 4.7 km/h 4.8 km/h 89% 0.0 mm 0 W/m2
22:45 14.8 °C 13.2 °C 1003.0 hPa NW 4.7 km/h 6.4 km/h 90% 0.0 mm 0 W/m2
22:50 14.8 °C 13.2 °C 1003.0 hPa WNW 4.7 km/h 4.8 km/h 90% 0.0 mm 0 W/m2
22:55 14.7 °C 13.1 °C 1003.0 hPa WSW 6.4 km/h 8 km/h 90% 0.0 mm 0 W/m2
23:00 14.7 °C 13.1 °C 1003.0 hPa West 3.2 km/h 9.7 km/h 90% 0.0 mm 0 W/m2
23:05 14.7 °C 13.1 °C 1003.0 hPa West 3.2 km/h 3.2 km/h 90% 0.0 mm 0 W/m2
23:10 14.6 °C 13 °C 1003.0 hPa WSW 4.7 km/h 4.8 km/h 90% 0.0 mm 0 W/m2
23:15 14.6 °C 13.1 °C 1003.0 hPa West 3.2 km/h 3.2 km/h 91% 0.0 mm 0 W/m2
23:20 14.6 °C 13.1 °C 1003.0 hPa West 4.7 km/h 4.8 km/h 91% 0.0 mm 0 W/m2
23:25 14.6 °C 13.1 °C 1003.0 hPa WSW 1.4 km/h 3.2 km/h 91% 0.0 mm 0 W/m2
23:30 14.5 °C 13 °C 1003.0 hPa WNW 3.2 km/h 3.2 km/h 91% 0.0 mm 0 W/m2
23:35 14.5 °C 13 °C 1003.0 hPa Calm   4.8 km/h 91% 0.0 mm 0 W/m2
23:41 14.5 °C 13 °C 1003.0 hPa Calm   1.6 km/h 91% 0.0 mm 0 W/m2
23:46 14.5 °C 13.2 °C 1003.0 hPa Calm     92% 0.0 mm 0 W/m2
23:51 14.4 °C 13.1 °C 1003.0 hPa Calm     92% 0.0 mm 0 W/m2
23:56 14.4 °C 13.1 °C 1003.0 hPa Calm   1.6 km/h 92% 0.0 mm 0 W/m2
Juneau County Weather
Compliments of Weather Underground - 4 mb